sensor_id;sensor_type;location;lat;lon;timestamp;P1;durP1;ratioP1;P2;durP2;ratioP2
44276;SDS011;29973;43.742;1.236;2023-02-27T00:01:07;6.65;;;2.97;;
44276;SDS011;29973;43.742;1.236;2023-02-27T00:03:32;4.05;;;3.13;;
44276;SDS011;29973;43.742;1.236;2023-02-27T00:05:58;4.43;;;3.55;;
44276;SDS011;29973;43.742;1.236;2023-02-27T00:08:24;5.35;;;2.53;;
44276;SDS011;29973;43.742;1.236;2023-02-27T00:10:50;6.40;;;3.60;;
44276;SDS011;29973;43.742;1.236;2023-02-27T00:13:15;3.22;;;2.90;;
44276;SDS011;29973;43.742;1.236;2023-02-27T00:15:44;5.32;;;3.30;;
44276;SDS011;29973;43.742;1.236;2023-02-27T00:18:14;4.28;;;2.67;;
44276;SDS011;29973;43.742;1.236;2023-02-27T00:20:40;4.90;;;3.42;;
44276;SDS011;29973;43.742;1.236;2023-02-27T00:23:06;3.50;;;3.17;;
44276;SDS011;29973;43.742;1.236;2023-02-27T00:25:34;5.40;;;2.60;;
44276;SDS011;29973;43.742;1.236;2023-02-27T00:28:00;5.70;;;2.83;;
44276;SDS011;29973;43.742;1.236;2023-02-27T00:30:26;4.90;;;2.67;;
44276;SDS011;29973;43.742;1.236;2023-02-27T00:32:53;5.22;;;3.03;;
44276;SDS011;29973;43.742;1.236;2023-02-27T00:35:19;3.72;;;2.90;;
44276;SDS011;29973;43.742;1.236;2023-02-27T00:37:45;6.65;;;2.58;;
44276;SDS011;29973;43.742;1.236;2023-02-27T00:40:11;3.60;;;2.63;;
44276;SDS011;29973;43.742;1.236;2023-02-27T00:42:37;5.20;;;3.20;;
44276;SDS011;29973;43.742;1.236;2023-02-27T00:45:04;5.53;;;3.03;;
44276;SDS011;29973;43.742;1.236;2023-02-27T00:47:31;5.03;;;2.80;;
44276;SDS011;29973;43.742;1.236;2023-02-27T00:49:57;7.43;;;2.92;;
44276;SDS011;29973;43.742;1.236;2023-02-27T00:52:23;3.42;;;2.33;;
44276;SDS011;29973;43.742;1.236;2023-02-27T00:54:49;5.78;;;2.88;;
44276;SDS011;29973;43.742;1.236;2023-02-27T00:57:15;3.35;;;2.53;;
44276;SDS011;29973;43.742;1.236;2023-02-27T00:59:41;5.90;;;3.28;;
44276;SDS011;29973;43.742;1.236;2023-02-27T01:02:07;3.83;;;2.40;;
44276;SDS011;29973;43.742;1.236;2023-02-27T01:04:33;3.00;;;2.70;;
44276;SDS011;29973;43.742;1.236;2023-02-27T01:06:59;2.88;;;2.42;;
44276;SDS011;29973;43.742;1.236;2023-02-27T01:09:25;7.47;;;2.85;;
44276;SDS011;29973;43.742;1.236;2023-02-27T01:11:50;3.75;;;2.78;;
44276;SDS011;29973;43.742;1.236;2023-02-27T01:14:16;3.40;;;2.92;;
44276;SDS011;29973;43.742;1.236;2023-02-27T01:16:43;3.17;;;2.47;;
44276;SDS011;29973;43.742;1.236;2023-02-27T01:19:08;7.10;;;3.25;;
44276;SDS011;29973;43.742;1.236;2023-02-27T01:21:34;3.47;;;2.72;;
44276;SDS011;29973;43.742;1.236;2023-02-27T01:24:00;5.28;;;2.75;;
44276;SDS011;29973;43.742;1.236;2023-02-27T01:26:25;5.15;;;2.80;;
44276;SDS011;29973;43.742;1.236;2023-02-27T01:28:51;6.40;;;2.72;;
44276;SDS011;29973;43.742;1.236;2023-02-27T01:31:17;3.72;;;2.53;;
44276;SDS011;29973;43.742;1.236;2023-02-27T01:33:43;4.53;;;2.75;;
44276;SDS011;29973;43.742;1.236;2023-02-27T01:36:08;4.70;;;2.60;;
44276;SDS011;29973;43.742;1.236;2023-02-27T01:38:34;4.22;;;2.28;;
44276;SDS011;29973;43.742;1.236;2023-02-27T01:41:00;4.25;;;2.88;;
44276;SDS011;29973;43.742;1.236;2023-02-27T01:43:27;4.05;;;3.25;;
44276;SDS011;29973;43.742;1.236;2023-02-27T01:45:52;4.32;;;2.95;;
44276;SDS011;29973;43.742;1.236;2023-02-27T01:48:23;3.15;;;2.85;;
44276;SDS011;29973;43.742;1.236;2023-02-27T01:51:05;2.97;;;2.50;;
44276;SDS011;29973;43.742;1.236;2023-02-27T01:53:34;2.95;;;2.75;;
44276;SDS011;29973;43.742;1.236;2023-02-27T01:56:22;5.35;;;2.92;;
44276;SDS011;29973;43.742;1.236;2023-02-27T01:58:50;3.22;;;2.97;;
44276;SDS011;29973;43.742;1.236;2023-02-27T02:01:19;5.72;;;2.72;;
44276;SDS011;29973;43.742;1.236;2023-02-27T02:03:51;3.67;;;2.50;;
44276;SDS011;29973;43.742;1.236;2023-02-27T02:06:18;2.53;;;2.30;;
44276;SDS011;29973;43.742;1.236;2023-02-27T02:08:45;3.65;;;2.88;;
44276;SDS011;29973;43.742;1.236;2023-02-27T02:11:14;4.72;;;2.80;;
44276;SDS011;29973;43.742;1.236;2023-02-27T02:13:41;3.58;;;2.60;;
44276;SDS011;29973;43.742;1.236;2023-02-27T02:44:08;5.32;;;3.42;;
44276;SDS011;29973;43.742;1.236;2023-02-27T02:46:50;3.35;;;2.92;;
44276;SDS011;29973;43.742;1.236;2023-02-27T02:55:00;4.85;;;2.70;;
44276;SDS011;29973;43.742;1.236;2023-02-27T03:02:19;7.90;;;2.60;;
44276;SDS011;29973;43.742;1.236;2023-02-27T03:05:00;3.78;;;2.88;;
44276;SDS011;29973;43.742;1.236;2023-02-27T03:12:55;4.47;;;2.90;;
44276;SDS011;29973;43.742;1.236;2023-02-27T03:15:50;5.97;;;2.85;;
44276;SDS011;29973;43.742;1.236;2023-02-27T03:18:36;3.85;;;2.75;;
44276;SDS011;29973;43.742;1.236;2023-02-27T03:21:25;3.53;;;2.90;;
44276;SDS011;29973;43.742;1.236;2023-02-27T03:23:58;3.88;;;2.95;;
44276;SDS011;29973;43.742;1.236;2023-02-27T03:26:35;3.58;;;2.88;;
44276;SDS011;29973;43.742;1.236;2023-02-27T03:29:06;3.60;;;3.30;;
44276;SDS011;29973;43.742;1.236;2023-02-27T03:34:16;3.30;;;3.00;;
44276;SDS011;29973;43.742;1.236;2023-02-27T03:39:48;3.60;;;3.30;;
44276;SDS011;29973;43.742;1.236;2023-02-27T03:42:35;4.00;;;3.30;;
44276;SDS011;29973;43.742;1.236;2023-02-27T03:45:07;4.57;;;2.80;;
44276;SDS011;29973;43.742;1.236;2023-02-27T03:47:59;3.20;;;2.90;;
44276;SDS011;29973;43.742;1.236;2023-02-27T03:50:25;3.33;;;2.65;;
44276;SDS011;29973;43.742;1.236;2023-02-27T03:52:51;5.10;;;3.15;;
44276;SDS011;29973;43.742;1.236;2023-02-27T03:55:18;3.28;;;2.97;;
44276;SDS011;29973;43.742;1.236;2023-02-27T03:57:47;4.45;;;4.05;;
44276;SDS011;29973;43.742;1.236;2023-02-27T04:00:16;3.17;;;2.88;;
44276;SDS011;29973;43.742;1.236;2023-02-27T04:02:44;4.03;;;3.63;;
44276;SDS011;29973;43.742;1.236;2023-02-27T04:05:15;3.10;;;2.83;;
44276;SDS011;29973;43.742;1.236;2023-02-27T04:19:16;4.63;;;3.10;;
44276;SDS011;29973;43.742;1.236;2023-02-27T04:26:57;3.45;;;3.15;;
44276;SDS011;29973;43.742;1.236;2023-02-27T04:29:55;3.65;;;3.15;;
44276;SDS011;29973;43.742;1.236;2023-02-27T04:32:34;3.72;;;3.17;;
44276;SDS011;29973;43.742;1.236;2023-02-27T04:35:09;8.27;;;3.85;;
44276;SDS011;29973;43.742;1.236;2023-02-27T04:37:46;7.45;;;3.60;;
44276;SDS011;29973;43.742;1.236;2023-02-27T04:40:27;4.13;;;3.35;;
44276;SDS011;29973;43.742;1.236;2023-02-27T04:43:05;4.72;;;3.30;;
44276;SDS011;29973;43.742;1.236;2023-02-27T04:45:34;4.78;;;3.53;;
44276;SDS011;29973;43.742;1.236;2023-02-27T04:48:17;5.25;;;3.97;;
44276;SDS011;29973;43.742;1.236;2023-02-27T04:50:54;4.57;;;4.18;;
44276;SDS011;29973;43.742;1.236;2023-02-27T04:54:07;4.25;;;3.85;;
44276;SDS011;29973;43.742;1.236;2023-02-27T04:56:18;6.65;;;3.83;;
44276;SDS011;29973;43.742;1.236;2023-02-27T04:58:51;9.98;;;3.60;;
44276;SDS011;29973;43.742;1.236;2023-02-27T05:01:28;5.60;;;3.60;;
44276;SDS011;29973;43.742;1.236;2023-02-27T05:04:01;5.07;;;3.63;;
44276;SDS011;29973;43.742;1.236;2023-02-27T05:06:30;5.00;;;3.55;;
44276;SDS011;29973;43.742;1.236;2023-02-27T05:09:05;2.90;;;2.60;;
44276;SDS011;29973;43.742;1.236;2023-02-27T05:11:46;3.90;;;3.50;;
44276;SDS011;29973;43.742;1.236;2023-02-27T05:14:19;4.45;;;4.00;;
44276;SDS011;29973;43.742;1.236;2023-02-27T05:16:50;6.40;;;4.28;;
44276;SDS011;29973;43.742;1.236;2023-02-27T05:19:23;4.25;;;3.63;;
44276;SDS011;29973;43.742;1.236;2023-02-27T05:21:54;7.28;;;4.63;;
44276;SDS011;29973;43.742;1.236;2023-02-27T05:27:34;4.82;;;3.80;;
44276;SDS011;29973;43.742;1.236;2023-02-27T05:30:07;5.90;;;4.18;;
44276;SDS011;29973;43.742;1.236;2023-02-27T05:37:54;4.85;;;3.33;;
44276;SDS011;29973;43.742;1.236;2023-02-27T05:40:52;4.50;;;3.60;;
44276;SDS011;29973;43.742;1.236;2023-02-27T05:45:59;5.20;;;3.60;;
44276;SDS011;29973;43.742;1.236;2023-02-27T05:48:29;4.70;;;3.88;;
44276;SDS011;29973;43.742;1.236;2023-02-27T05:51:00;5.15;;;3.20;;
44276;SDS011;29973;43.742;1.236;2023-02-27T05:53:29;4.13;;;3.72;;
44276;SDS011;29973;43.742;1.236;2023-02-27T05:56:01;7.50;;;4.28;;
44276;SDS011;29973;43.742;1.236;2023-02-27T05:58:34;8.68;;;4.35;;
44276;SDS011;29973;43.742;1.236;2023-02-27T06:01:05;8.05;;;3.53;;
44276;SDS011;29973;43.742;1.236;2023-02-27T06:03:34;5.18;;;4.68;;
44276;SDS011;29973;43.742;1.236;2023-02-27T06:06:05;5.45;;;4.68;;
44276;SDS011;29973;43.742;1.236;2023-02-27T06:08:42;3.55;;;3.10;;
44276;SDS011;29973;43.742;1.236;2023-02-27T06:11:09;4.95;;;3.83;;
44276;SDS011;29973;43.742;1.236;2023-02-27T06:13:35;5.90;;;4.70;;
44276;SDS011;29973;43.742;1.236;2023-02-27T06:16:00;7.57;;;4.50;;
44276;SDS011;29973;43.742;1.236;2023-02-27T06:18:26;4.43;;;3.83;;
44276;SDS011;29973;43.742;1.236;2023-02-27T06:20:52;5.10;;;4.15;;
44276;SDS011;29973;43.742;1.236;2023-02-27T06:23:18;8.02;;;3.78;;
44276;SDS011;29973;43.742;1.236;2023-02-27T06:25:44;11.05;;;4.97;;
44276;SDS011;29973;43.742;1.236;2023-02-27T06:28:12;5.78;;;4.30;;
44276;SDS011;29973;43.742;1.236;2023-02-27T06:30:38;6.80;;;4.97;;
44276;SDS011;29973;43.742;1.236;2023-02-27T06:33:04;4.88;;;3.95;;
44276;SDS011;29973;43.742;1.236;2023-02-27T06:35:30;6.40;;;4.38;;
44276;SDS011;29973;43.742;1.236;2023-02-27T06:37:58;4.18;;;3.17;;
44276;SDS011;29973;43.742;1.236;2023-02-27T06:40:27;4.80;;;3.72;;
44276;SDS011;29973;43.742;1.236;2023-02-27T06:42:53;4.63;;;4.07;;
44276;SDS011;29973;43.742;1.236;2023-02-27T06:45:18;5.43;;;4.57;;
44276;SDS011;29973;43.742;1.236;2023-02-27T06:47:44;6.30;;;4.47;;
44276;SDS011;29973;43.742;1.236;2023-02-27T06:50:11;6.15;;;4.70;;
44276;SDS011;29973;43.742;1.236;2023-02-27T06:52:37;7.75;;;4.20;;
44276;SDS011;29973;43.742;1.236;2023-02-27T06:55:04;4.68;;;4.20;;
44276;SDS011;29973;43.742;1.236;2023-02-27T06:57:34;5.30;;;4.05;;
44276;SDS011;29973;43.742;1.236;2023-02-27T07:00:00;4.85;;;3.85;;
44276;SDS011;29973;43.742;1.236;2023-02-27T07:02:26;5.82;;;4.78;;
44276;SDS011;29973;43.742;1.236;2023-02-27T07:04:52;5.30;;;4.28;;
44276;SDS011;29973;43.742;1.236;2023-02-27T07:07:18;5.55;;;3.92;;
44276;SDS011;29973;43.742;1.236;2023-02-27T07:09:43;5.63;;;4.40;;
44276;SDS011;29973;43.742;1.236;2023-02-27T07:12:09;10.80;;;4.53;;
44276;SDS011;29973;43.742;1.236;2023-02-27T07:14:35;5.10;;;4.35;;
44276;SDS011;29973;43.742;1.236;2023-02-27T07:17:01;5.30;;;4.80;;
44276;SDS011;29973;43.742;1.236;2023-02-27T07:19:29;11.82;;;4.80;;
44276;SDS011;29973;43.742;1.236;2023-02-27T07:21:56;8.57;;;4.03;;
44276;SDS011;29973;43.742;1.236;2023-02-27T07:24:24;5.63;;;4.65;;
44276;SDS011;29973;43.742;1.236;2023-02-27T07:26:50;7.43;;;3.88;;
44276;SDS011;29973;43.742;1.236;2023-02-27T07:29:17;4.65;;;4.05;;
44276;SDS011;29973;43.742;1.236;2023-02-27T07:31:42;7.78;;;4.30;;
44276;SDS011;29973;43.742;1.236;2023-02-27T07:34:29;4.93;;;4.40;;
44276;SDS011;29973;43.742;1.236;2023-02-27T07:37:47;5.68;;;4.07;;
44276;SDS011;29973;43.742;1.236;2023-02-27T07:40:12;5.13;;;4.15;;
44276;SDS011;29973;43.742;1.236;2023-02-27T07:42:38;4.22;;;3.75;;
44276;SDS011;29973;43.742;1.236;2023-02-27T07:45:05;4.85;;;4.35;;
44276;SDS011;29973;43.742;1.236;2023-02-27T07:47:31;8.25;;;4.93;;
44276;SDS011;29973;43.742;1.236;2023-02-27T07:49:57;6.53;;;4.53;;
44276;SDS011;29973;43.742;1.236;2023-02-27T07:52:23;5.72;;;4.30;;
44276;SDS011;29973;43.742;1.236;2023-02-27T07:54:49;4.40;;;3.97;;
44276;SDS011;29973;43.742;1.236;2023-02-27T07:57:14;5.55;;;4.63;;
44276;SDS011;29973;43.742;1.236;2023-02-27T07:59:40;6.53;;;4.22;;
44276;SDS011;29973;43.742;1.236;2023-02-27T08:02:06;8.40;;;4.18;;
44276;SDS011;29973;43.742;1.236;2023-02-27T08:04:36;6.95;;;3.78;;
44276;SDS011;29973;43.742;1.236;2023-02-27T08:07:02;6.03;;;3.88;;
44276;SDS011;29973;43.742;1.236;2023-02-27T08:09:29;5.18;;;4.13;;
44276;SDS011;29973;43.742;1.236;2023-02-27T08:11:55;7.90;;;4.35;;
44276;SDS011;29973;43.742;1.236;2023-02-27T08:14:21;5.93;;;4.35;;
44276;SDS011;29973;43.742;1.236;2023-02-27T08:16:47;8.25;;;4.25;;
44276;SDS011;29973;43.742;1.236;2023-02-27T08:19:13;5.13;;;4.30;;
44276;SDS011;29973;43.742;1.236;2023-02-27T08:21:39;4.78;;;3.83;;
44276;SDS011;29973;43.742;1.236;2023-02-27T08:24:05;6.45;;;3.92;;
44276;SDS011;29973;43.742;1.236;2023-02-27T08:26:34;4.25;;;3.42;;
44276;SDS011;29973;43.742;1.236;2023-02-27T08:29:00;6.35;;;4.07;;
44276;SDS011;29973;43.742;1.236;2023-02-27T08:31:26;6.90;;;3.60;;
44276;SDS011;29973;43.742;1.236;2023-02-27T08:33:51;4.65;;;4.03;;
44276;SDS011;29973;43.742;1.236;2023-02-27T08:36:17;4.75;;;4.20;;
44276;SDS011;29973;43.742;1.236;2023-02-27T08:38:43;6.18;;;3.72;;
44276;SDS011;29973;43.742;1.236;2023-02-27T08:41:09;4.47;;;3.92;;
44276;SDS011;29973;43.742;1.236;2023-02-27T08:43:35;6.70;;;4.47;;
44276;SDS011;29973;43.742;1.236;2023-02-27T08:46:03;4.95;;;3.88;;
44276;SDS011;29973;43.742;1.236;2023-02-27T08:48:29;5.57;;;3.92;;
44276;SDS011;29973;43.742;1.236;2023-02-27T08:50:55;4.85;;;3.55;;
44276;SDS011;29973;43.742;1.236;2023-02-27T08:53:21;5.53;;;3.88;;
44276;SDS011;29973;43.742;1.236;2023-02-27T08:55:50;5.35;;;4.30;;
44276;SDS011;29973;43.742;1.236;2023-02-27T08:58:17;4.30;;;3.88;;
44276;SDS011;29973;43.742;1.236;2023-02-27T09:00:46;3.85;;;3.53;;
44276;SDS011;29973;43.742;1.236;2023-02-27T09:03:16;4.18;;;3.28;;
44276;SDS011;29973;43.742;1.236;2023-02-27T09:05:42;5.53;;;3.60;;
44276;SDS011;29973;43.742;1.236;2023-02-27T09:08:08;4.47;;;3.78;;
44276;SDS011;29973;43.742;1.236;2023-02-27T09:10:33;9.25;;;4.15;;
44276;SDS011;29973;43.742;1.236;2023-02-27T09:13:00;5.82;;;4.25;;
44276;SDS011;29973;43.742;1.236;2023-02-27T09:15:26;6.95;;;4.47;;
44276;SDS011;29973;43.742;1.236;2023-02-27T09:17:57;4.18;;;3.75;;
44276;SDS011;29973;43.742;1.236;2023-02-27T09:20:27;4.68;;;4.20;;
44276;SDS011;29973;43.742;1.236;2023-02-27T09:22:55;4.75;;;3.47;;
44276;SDS011;29973;43.742;1.236;2023-02-27T09:25:22;8.95;;;3.83;;
44276;SDS011;29973;43.742;1.236;2023-02-27T09:27:49;6.57;;;4.05;;
44276;SDS011;29973;43.742;1.236;2023-02-27T09:30:17;6.50;;;4.40;;
44276;SDS011;29973;43.742;1.236;2023-02-27T09:32:43;4.53;;;4.10;;
44276;SDS011;29973;43.742;1.236;2023-02-27T09:35:09;4.75;;;3.30;;
44276;SDS011;29973;43.742;1.236;2023-02-27T09:37:35;6.43;;;3.55;;
44276;SDS011;29973;43.742;1.236;2023-02-27T09:40:01;8.68;;;4.43;;
44276;SDS011;29973;43.742;1.236;2023-02-27T09:42:32;4.95;;;3.53;;
44276;SDS011;29973;43.742;1.236;2023-02-27T09:45:05;3.65;;;3.15;;
44276;SDS011;29973;43.742;1.236;2023-02-27T09:47:38;6.60;;;4.13;;
44276;SDS011;29973;43.742;1.236;2023-02-27T09:52:50;5.90;;;4.13;;
44276;SDS011;29973;43.742;1.236;2023-02-27T09:55:18;8.18;;;5.50;;
44276;SDS011;29973;43.742;1.236;2023-02-27T09:57:47;5.72;;;3.63;;
44276;SDS011;29973;43.742;1.236;2023-02-27T10:00:26;5.00;;;3.90;;
44276;SDS011;29973;43.742;1.236;2023-02-27T10:05:22;5.20;;;4.00;;
44276;SDS011;29973;43.742;1.236;2023-02-27T10:11:04;4.90;;;3.90;;
44276;SDS011;29973;43.742;1.236;2023-02-27T10:13:48;5.00;;;3.80;;
44276;SDS011;29973;43.742;1.236;2023-02-27T10:16:20;4.13;;;3.53;;
44276;SDS011;29973;43.742;1.236;2023-02-27T10:21:14;6.25;;;4.03;;
44276;SDS011;29973;43.742;1.236;2023-02-27T10:26:21;5.40;;;3.67;;
44276;SDS011;29973;43.742;1.236;2023-02-27T10:28:56;6.15;;;3.20;;
44276;SDS011;29973;43.742;1.236;2023-02-27T10:31:27;3.80;;;3.40;;
44276;SDS011;29973;43.742;1.236;2023-02-27T10:33:57;4.53;;;3.05;;
44276;SDS011;29973;43.742;1.236;2023-02-27T10:36:25;4.03;;;3.30;;
44276;SDS011;29973;43.742;1.236;2023-02-27T10:38:59;4.35;;;3.28;;
44276;SDS011;29973;43.742;1.236;2023-02-27T10:41:33;4.57;;;3.47;;
44276;SDS011;29973;43.742;1.236;2023-02-27T10:44:00;4.45;;;3.42;;
44276;SDS011;29973;43.742;1.236;2023-02-27T10:46:27;3.85;;;3.50;;
44276;SDS011;29973;43.742;1.236;2023-02-27T10:48:54;10.05;;;6.32;;
44276;SDS011;29973;43.742;1.236;2023-02-27T10:51:30;6.68;;;4.05;;
44276;SDS011;29973;43.742;1.236;2023-02-27T10:56:53;3.72;;;3.35;;
44276;SDS011;29973;43.742;1.236;2023-02-27T10:59:39;6.05;;;3.45;;
44276;SDS011;29973;43.742;1.236;2023-02-27T11:04:44;4.53;;;3.42;;
44276;SDS011;29973;43.742;1.236;2023-02-27T11:07:13;5.15;;;3.17;;
44276;SDS011;29973;43.742;1.236;2023-02-27T11:09:57;3.90;;;3.40;;
44276;SDS011;29973;43.742;1.236;2023-02-27T11:12:30;19.25;;;9.35;;
44276;SDS011;29973;43.742;1.236;2023-02-27T11:15:02;8.80;;;3.92;;
44276;SDS011;29973;43.742;1.236;2023-02-27T11:17:46;7.47;;;3.78;;
44276;SDS011;29973;43.742;1.236;2023-02-27T11:20:30;6.40;;;3.30;;
44276;SDS011;29973;43.742;1.236;2023-02-27T11:25:43;6.53;;;3.85;;
44276;SDS011;29973;43.742;1.236;2023-02-27T11:28:24;7.22;;;5.38;;
44276;SDS011;29973;43.742;1.236;2023-02-27T11:30:56;10.60;;;5.68;;
44276;SDS011;29973;43.742;1.236;2023-02-27T11:33:39;6.35;;;4.00;;
44276;SDS011;29973;43.742;1.236;2023-02-27T11:36:16;5.35;;;3.42;;
44276;SDS011;29973;43.742;1.236;2023-02-27T11:38:48;5.05;;;3.25;;
44276;SDS011;29973;43.742;1.236;2023-02-27T11:41:20;4.75;;;3.40;;
44276;SDS011;29973;43.742;1.236;2023-02-27T11:43:57;5.97;;;4.10;;
44276;SDS011;29973;43.742;1.236;2023-02-27T11:46:25;7.18;;;4.78;;
44276;SDS011;29973;43.742;1.236;2023-02-27T11:48:54;6.40;;;4.80;;
44276;SDS011;29973;43.742;1.236;2023-02-27T11:54:35;17.90;;;9.90;;
44276;SDS011;29973;43.742;1.236;2023-02-27T11:57:13;11.20;;;5.82;;
44276;SDS011;29973;43.742;1.236;2023-02-27T11:59:53;17.50;;;10.45;;
44276;SDS011;29973;43.742;1.236;2023-02-27T12:02:45;4.88;;;4.10;;
44276;SDS011;29973;43.742;1.236;2023-02-27T12:13:37;5.20;;;3.40;;
44276;SDS011;29973;43.742;1.236;2023-02-27T12:16:16;8.05;;;4.53;;
44276;SDS011;29973;43.742;1.236;2023-02-27T12:18:52;9.18;;;3.88;;
44276;SDS011;29973;43.742;1.236;2023-02-27T12:21:40;5.88;;;3.80;;
44276;SDS011;29973;43.742;1.236;2023-02-27T12:26:49;6.07;;;4.55;;
44276;SDS011;29973;43.742;1.236;2023-02-27T12:29:52;6.63;;;3.83;;
44276;SDS011;29973;43.742;1.236;2023-02-27T12:32:23;4.88;;;3.55;;
44276;SDS011;29973;43.742;1.236;2023-02-27T12:34:51;3.53;;;3.10;;
44276;SDS011;29973;43.742;1.236;2023-02-27T12:37:24;4.72;;;3.80;;
44276;SDS011;29973;43.742;1.236;2023-02-27T12:39:57;5.30;;;3.50;;
44276;SDS011;29973;43.742;1.236;2023-02-27T12:45:25;7.63;;;2.85;;
44276;SDS011;29973;43.742;1.236;2023-02-27T12:50:52;3.95;;;3.22;;
44276;SDS011;29973;43.742;1.236;2023-02-27T13:04:46;4.80;;;3.75;;
44276;SDS011;29973;43.742;1.236;2023-02-27T13:10:41;8.48;;;5.10;;
44276;SDS011;29973;43.742;1.236;2023-02-27T13:15:58;4.95;;;3.33;;
44276;SDS011;29973;43.742;1.236;2023-02-27T13:18:30;5.72;;;4.25;;
44276;SDS011;29973;43.742;1.236;2023-02-27T13:21:10;6.05;;;4.28;;
44276;SDS011;29973;43.742;1.236;2023-02-27T13:26:27;5.32;;;4.82;;
44276;SDS011;29973;43.742;1.236;2023-02-27T13:29:17;4.43;;;3.17;;
44276;SDS011;29973;43.742;1.236;2023-02-27T13:37:04;4.35;;;3.75;;
44276;SDS011;29973;43.742;1.236;2023-02-27T13:39:39;3.88;;;3.20;;
44276;SDS011;29973;43.742;1.236;2023-02-27T13:44:51;5.15;;;4.18;;
44276;SDS011;29973;43.742;1.236;2023-02-27T13:52:45;6.22;;;3.95;;
44276;SDS011;29973;43.742;1.236;2023-02-27T13:55:30;5.72;;;4.13;;
44276;SDS011;29973;43.742;1.236;2023-02-27T13:58:01;7.75;;;4.80;;
44276;SDS011;29973;43.742;1.236;2023-02-27T14:00:30;5.95;;;3.80;;
44276;SDS011;29973;43.742;1.236;2023-02-27T14:03:00;4.50;;;3.60;;
44276;SDS011;29973;43.742;1.236;2023-02-27T14:05:36;7.60;;;5.45;;
44276;SDS011;29973;43.742;1.236;2023-02-27T14:08:15;10.23;;;5.00;;
44276;SDS011;29973;43.742;1.236;2023-02-27T14:24:37;8.40;;;4.20;;
44276;SDS011;29973;43.742;1.236;2023-02-27T14:27:14;4.78;;;4.15;;
44276;SDS011;29973;43.742;1.236;2023-02-27T14:29:47;6.70;;;5.60;;
44276;SDS011;29973;43.742;1.236;2023-02-27T14:32:16;7.43;;;4.65;;
44276;SDS011;29973;43.742;1.236;2023-02-27T14:34:48;5.43;;;4.40;;
44276;SDS011;29973;43.742;1.236;2023-02-27T14:37:16;5.30;;;4.78;;
44276;SDS011;29973;43.742;1.236;2023-02-27T14:39:47;4.90;;;4.18;;
44276;SDS011;29973;43.742;1.236;2023-02-27T14:45:16;6.00;;;4.63;;
44276;SDS011;29973;43.742;1.236;2023-02-27T14:47:49;5.05;;;2.90;;
44276;SDS011;29973;43.742;1.236;2023-02-27T14:52:53;4.80;;;4.18;;
44276;SDS011;29973;43.742;1.236;2023-02-27T14:55:27;3.88;;;3.42;;
44276;SDS011;29973;43.742;1.236;2023-02-27T14:57:59;4.10;;;3.70;;
44276;SDS011;29973;43.742;1.236;2023-02-27T15:03:06;4.38;;;3.53;;
44276;SDS011;29973;43.742;1.236;2023-02-27T15:05:43;6.78;;;3.28;;
44276;SDS011;29973;43.742;1.236;2023-02-27T15:08:13;5.32;;;3.97;;
44276;SDS011;29973;43.742;1.236;2023-02-27T15:10:41;3.53;;;3.08;;
44276;SDS011;29973;43.742;1.236;2023-02-27T15:13:14;4.65;;;3.50;;
44276;SDS011;29973;43.742;1.236;2023-02-27T15:18:52;3.72;;;3.35;;
44276;SDS011;29973;43.742;1.236;2023-02-27T15:21:28;6.85;;;3.83;;
44276;SDS011;29973;43.742;1.236;2023-02-27T15:23:59;6.25;;;3.67;;
44276;SDS011;29973;43.742;1.236;2023-02-27T15:26:29;6.22;;;3.40;;
44276;SDS011;29973;43.742;1.236;2023-02-27T15:29:01;3.63;;;2.55;;
44276;SDS011;29973;43.742;1.236;2023-02-27T15:31:29;4.03;;;3.47;;
44276;SDS011;29973;43.742;1.236;2023-02-27T15:33:57;9.13;;;3.80;;
44276;SDS011;29973;43.742;1.236;2023-02-27T15:36:25;3.72;;;3.33;;
44276;SDS011;29973;43.742;1.236;2023-02-27T15:39:02;5.10;;;3.85;;
44276;SDS011;29973;43.742;1.236;2023-02-27T15:41:28;4.60;;;3.67;;
44276;SDS011;29973;43.742;1.236;2023-02-27T15:43:53;4.63;;;3.55;;
44276;SDS011;29973;43.742;1.236;2023-02-27T15:46:19;10.40;;;5.70;;
44276;SDS011;29973;43.742;1.236;2023-02-27T15:48:45;5.95;;;4.72;;
44276;SDS011;29973;43.742;1.236;2023-02-27T15:51:12;5.72;;;3.92;;
44276;SDS011;29973;43.742;1.236;2023-02-27T15:53:38;5.78;;;4.68;;
44276;SDS011;29973;43.742;1.236;2023-02-27T15:56:13;6.38;;;4.47;;
44276;SDS011;29973;43.742;1.236;2023-02-27T15:58:46;5.38;;;4.53;;
44276;SDS011;29973;43.742;1.236;2023-02-27T16:01:21;5.68;;;4.32;;
44276;SDS011;29973;43.742;1.236;2023-02-27T16:03:51;6.03;;;4.40;;
44276;SDS011;29973;43.742;1.236;2023-02-27T16:06:19;10.50;;;5.13;;
44276;SDS011;29973;43.742;1.236;2023-02-27T16:08:56;6.22;;;4.70;;
44276;SDS011;29973;43.742;1.236;2023-02-27T16:11:29;6.25;;;4.45;;
44276;SDS011;29973;43.742;1.236;2023-02-27T16:13:57;6.32;;;4.78;;
44276;SDS011;29973;43.742;1.236;2023-02-27T16:16:28;9.88;;;5.57;;
44276;SDS011;29973;43.742;1.236;2023-02-27T16:19:23;8.38;;;4.78;;
44276;SDS011;29973;43.742;1.236;2023-02-27T16:22:12;7.00;;;5.35;;
44276;SDS011;29973;43.742;1.236;2023-02-27T16:24:41;7.83;;;5.63;;
44276;SDS011;29973;43.742;1.236;2023-02-27T16:27:41;11.85;;;5.95;;
44276;SDS011;29973;43.742;1.236;2023-02-27T16:29:59;8.70;;;5.72;;
44276;SDS011;29973;43.742;1.236;2023-02-27T16:37:35;10.55;;;6.40;;
44276;SDS011;29973;43.742;1.236;2023-02-27T16:40:11;12.10;;;6.10;;
44276;SDS011;29973;43.742;1.236;2023-02-27T16:42:39;16.65;;;7.10;;
44276;SDS011;29973;43.742;1.236;2023-02-27T16:45:06;7.60;;;5.25;;
44276;SDS011;29973;43.742;1.236;2023-02-27T16:47:36;6.63;;;4.70;;
44276;SDS011;29973;43.742;1.236;2023-02-27T16:50:08;6.30;;;4.80;;
44276;SDS011;29973;43.742;1.236;2023-02-27T16:52:44;9.18;;;5.07;;
44276;SDS011;29973;43.742;1.236;2023-02-27T16:55:11;9.95;;;6.15;;
44276;SDS011;29973;43.742;1.236;2023-02-27T16:57:37;6.13;;;4.60;;
44276;SDS011;29973;43.742;1.236;2023-02-27T17:00:03;4.95;;;4.40;;
44276;SDS011;29973;43.742;1.236;2023-02-27T17:02:33;5.57;;;4.45;;
44276;SDS011;29973;43.742;1.236;2023-02-27T17:04:59;5.65;;;4.72;;
44276;SDS011;29973;43.742;1.236;2023-02-27T17:07:26;8.40;;;5.20;;
44276;SDS011;29973;43.742;1.236;2023-02-27T17:09:51;7.05;;;5.45;;
44276;SDS011;29973;43.742;1.236;2023-02-27T17:12:18;12.18;;;5.32;;
44276;SDS011;29973;43.742;1.236;2023-02-27T17:14:43;7.70;;;5.72;;
44276;SDS011;29973;43.742;1.236;2023-02-27T17:17:09;8.73;;;5.55;;
44276;SDS011;29973;43.742;1.236;2023-02-27T17:19:35;7.93;;;4.95;;
44276;SDS011;29973;43.742;1.236;2023-02-27T17:22:01;10.77;;;6.57;;
44276;SDS011;29973;43.742;1.236;2023-02-27T17:24:27;9.55;;;5.55;;
44276;SDS011;29973;43.742;1.236;2023-02-27T17:26:53;6.50;;;5.13;;
44276;SDS011;29973;43.742;1.236;2023-02-27T17:29:19;8.85;;;4.95;;
44276;SDS011;29973;43.742;1.236;2023-02-27T17:31:45;10.00;;;6.55;;
44276;SDS011;29973;43.742;1.236;2023-02-27T17:34:11;8.32;;;5.72;;
44276;SDS011;29973;43.742;1.236;2023-02-27T17:36:37;6.78;;;5.40;;
44276;SDS011;29973;43.742;1.236;2023-02-27T17:39:03;10.05;;;4.68;;
44276;SDS011;29973;43.742;1.236;2023-02-27T17:41:30;6.75;;;4.70;;
44276;SDS011;29973;43.742;1.236;2023-02-27T17:43:57;6.30;;;5.07;;
44276;SDS011;29973;43.742;1.236;2023-02-27T17:46:24;7.70;;;5.50;;
44276;SDS011;29973;43.742;1.236;2023-02-27T17:48:51;6.93;;;5.32;;
44276;SDS011;29973;43.742;1.236;2023-02-27T17:51:18;7.45;;;5.80;;
44276;SDS011;29973;43.742;1.236;2023-02-27T17:53:43;6.35;;;5.13;;
44276;SDS011;29973;43.742;1.236;2023-02-27T17:56:10;5.32;;;4.72;;
44276;SDS011;29973;43.742;1.236;2023-02-27T17:58:37;12.02;;;6.10;;
44276;SDS011;29973;43.742;1.236;2023-02-27T18:01:03;8.43;;;5.88;;
44276;SDS011;29973;43.742;1.236;2023-02-27T18:03:29;7.18;;;5.10;;
44276;SDS011;29973;43.742;1.236;2023-02-27T18:05:55;7.70;;;4.30;;
44276;SDS011;29973;43.742;1.236;2023-02-27T18:08:21;12.50;;;5.95;;
44276;SDS011;29973;43.742;1.236;2023-02-27T18:10:47;11.20;;;6.70;;